Terminal Aerodrome Forecast
Issued by NWS Bismarck, ND

Home | Current Version | Previous Version | Graphics & Text | Print | Product List | Glossary On
Versions: 1 2 3 4 5 6 7 8 9 10 11 12 13 14 15 16 17 18 19 20 21 22
000
FTUS43 KBIS 232333
TAFBIS
TAF
KBIS 232333Z 2400/2424 23008KT P6SM VCTS SCT070 BKN120CB
      TEMPO 2401/2405 -SHRA BKN070
     FM240600 VRB04KT P6SM FEW100 SCT200=

USA.gov is the U.S. government's official web portal to all federal, state and local government web resources and services.